Time;durP1;ratioP1;P1;durP2;ratioP2;P2;SDS_P1;SDS_P2;PMS_P1;PMS_P2;Temp;Humidity;BMP_temperature;BMP_pressure;BME280_temperature;BME280_humidity;BME280_pressure;Samples;Min_cycle;Max_cycle;Signal;HPM_P1;HPM_P2
2023/12/14 00:00:47;;;;;;;7.22;6.20;;;5.70;99.90;;;;;;5074509;28;20485;-70
2023/12/14 00:03:12;;;;;;;7.68;5.25;;;5.70;99.90;;;;;;5073022;28;20045;-70
2023/12/14 00:05:38;;;;;;;7.40;5.60;;;5.80;99.90;;;;;;5073138;28;20123;-70
2023/12/14 00:08:04;;;;;;;7.60;5.63;;;5.70;99.90;;;;;;5074326;28;20028;-71
2023/12/14 00:10:29;;;;;;;8.57;5.93;;;5.80;99.90;;;;;;5072652;28;20507;-71
2023/12/14 00:12:55;;;;;;;6.95;5.63;;;5.80;99.90;;;;;;5073923;28;20048;-71
2023/12/14 00:15:21;;;;;;;7.22;5.93;;;5.70;99.90;;;;;;5072746;28;20048;-70
2023/12/14 00:17:46;;;;;;;9.57;5.88;;;5.80;99.90;;;;;;5074207;28;20048;-70
2023/12/14 00:20:12;;;;;;;11.02;6.10;;;5.70;99.90;;;;;;5073789;28;20119;-70
2023/12/14 00:22:38;;;;;;;7.93;5.88;;;5.80;99.90;;;;;;5072038;28;20044;-70
2023/12/14 00:25:04;;;;;;;9.63;6.10;;;5.70;99.90;;;;;;5072499;28;20044;-70
2023/12/14 00:27:30;;;;;;;11.55;6.25;;;5.70;99.90;;;;;;5074042;28;20032;-70
2023/12/14 00:29:56;;;;;;;9.07;6.28;;;5.70;99.90;;;;;;5073959;28;20106;-70
2023/12/14 00:32:21;;;;;;;11.02;7.13;;;5.70;99.90;;;;;;5072394;28;20123;-70
2023/12/14 00:34:47;;;;;;;8.90;5.95;;;5.70;99.90;;;;;;5072348;28;20056;-70
2023/12/14 00:37:12;;;;;;;8.57;6.63;;;5.70;99.90;;;;;;5073882;28;20037;-71
2023/12/14 00:39:38;;;;;;;12.25;6.50;;;5.70;99.90;;;;;;5072254;28;20447;-70
2023/12/14 00:42:04;;;;;;;9.65;6.13;;;5.70;99.90;;;;;;5072365;28;20044;-70
2023/12/14 00:44:29;;;;;;;9.63;6.75;;;5.70;99.90;;;;;;5072160;28;20493;-70
2023/12/14 00:46:55;;;;;;;10.20;6.13;;;5.70;99.90;;;;;;5072522;28;20045;-70
2023/12/14 00:49:20;;;;;;;8.73;5.70;;;5.70;99.90;;;;;;5072122;28;20504;-70
2023/12/14 00:51:46;;;;;;;7.80;5.75;;;5.60;99.90;;;;;;5072077;28;20043;-70
2023/12/14 00:54:12;;;;;;;12.27;6.43;;;5.60;99.90;;;;;;5072111;28;20044;-70
2023/12/14 00:56:37;;;;;;;9.27;6.15;;;5.60;99.90;;;;;;5072090;28;20117;-70
2023/12/14 00:59:03;;;;;;;10.65;6.32;;;5.60;99.90;;;;;;5072028;28;20056;-70
2023/12/14 01:01:28;;;;;;;11.18;6.50;;;5.60;99.90;;;;;;5071919;28;20055;-70
2023/12/14 01:03:54;;;;;;;8.60;6.00;;;5.60;99.90;;;;;;5072236;28;20039;-70
2023/12/14 01:06:20;;;;;;;8.77;5.95;;;5.60;99.90;;;;;;5071890;28;20127;-70
2023/12/14 01:08:45;;;;;;;10.50;6.22;;;5.60;99.90;;;;;;5073432;28;20115;-70
2023/12/14 01:11:11;;;;;;;7.63;5.40;;;5.60;99.90;;;;;;5072095;28;20044;-70
2023/12/14 01:13:37;;;;;;;8.15;5.57;;;5.60;99.90;;;;;;5071882;28;20048;-70
2023/12/14 01:16:02;;;;;;;9.45;5.80;;;5.60;99.90;;;;;;5072146;28;20090;-70
2023/12/14 01:18:28;;;;;;;8.20;5.47;;;5.60;99.90;;;;;;5071772;28;20474;-70
2023/12/14 01:20:53;;;;;;;8.80;5.70;;;5.60;99.90;;;;;;5073222;28;20095;-70
2023/12/14 01:23:19;;;;;;;9.75;6.20;;;5.60;99.90;;;;;;5072749;28;20063;-70
2023/12/14 01:25:45;;;;;;;7.30;5.72;;;5.60;99.90;;;;;;5073299;28;20028;-70
2023/12/14 01:28:10;;;;;;;8.88;5.10;;;5.60;99.90;;;;;;5071964;28;20040;-70
2023/12/14 01:30:36;;;;;;;8.48;4.93;;;5.60;99.90;;;;;;5071945;28;20405;-70
2023/12/14 01:33:01;;;;;;;8.45;5.55;;;5.60;99.90;;;;;;5072684;28;20047;-70
2023/12/14 01:35:29;;;;;;;8.80;5.18;;;5.50;99.90;;;;;;5075756;28;20045;-70
2023/12/14 01:37:55;;;;;;;9.35;5.63;;;5.60;99.90;;;;;;5075698;28;20520;-70
2023/12/14 01:40:21;;;;;;;11.55;5.97;;;5.60;99.90;;;;;;5076729;28;20044;-70
2023/12/14 01:42:46;;;;;;;8.32;5.32;;;5.50;99.90;;;;;;5058865;28;20040;-70
2023/12/14 01:45:15;;;;;;;8.80;5.45;;;5.50;99.90;;;;;;5075592;28;20037;-70
2023/12/14 01:47:41;;;;;;;7.82;5.70;;;5.50;99.90;;;;;;5075714;28;20048;-71
2023/12/14 01:50:07;;;;;;;7.72;5.05;;;5.50;99.90;;;;;;5075363;28;20037;-71
2023/12/14 01:52:33;;;;;;;8.70;5.22;;;5.50;99.90;;;;;;5076677;28;20064;-71
2023/12/14 01:54:58;;;;;;;7.65;5.50;;;5.50;99.90;;;;;;5076909;28;20044;-71
2023/12/14 01:57:24;;;;;;;6.78;4.88;;;5.50;99.90;;;;;;5076639;28;20119;-71
2023/12/14 01:59:50;;;;;;;7.38;5.32;;;5.50;99.90;;;;;;5075506;28;20048;-70
2023/12/14 02:02:15;;;;;;;7.55;5.10;;;5.50;99.90;;;;;;5075334;28;20051;-70
2023/12/14 02:04:41;;;;;;;7.55;5.20;;;5.50;99.90;;;;;;5076674;28;20478;-70
2023/12/14 02:07:07;;;;;;;8.45;5.10;;;5.50;99.90;;;;;;5075172;28;20079;-70
2023/12/14 02:09:32;;;;;;;7.30;5.13;;;5.40;99.90;;;;;;5076265;28;20040;-70
2023/12/14 02:11:58;;;;;;;8.85;5.30;;;5.50;99.90;;;;;;5075021;28;20044;-70
2023/12/14 02:14:23;;;;;;;6.90;4.95;;;5.40;99.90;;;;;;5075252;28;20040;-70
2023/12/14 02:16:49;;;;;;;9.02;5.38;;;5.40;99.90;;;;;;5076412;28;20502;-70
2023/12/14 02:19:15;;;;;;;7.72;5.22;;;5.50;99.90;;;;;;5076467;28;20040;-70
2023/12/14 02:21:40;;;;;;;7.80;5.72;;;5.50;99.90;;;;;;5076319;28;20435;-70
2023/12/14 02:24:06;;;;;;;7.78;5.43;;;5.40;99.90;;;;;;5074664;28;20130;-70
2023/12/14 02:26:31;;;;;;;10.13;5.70;;;5.50;99.90;;;;;;5074737;28;20090;-70
2023/12/14 02:28:57;;;;;;;7.25;5.10;;;5.40;99.90;;;;;;5075041;28;20091;-70
2023/12/14 02:31:23;;;;;;;6.32;5.00;;;5.50;99.90;;;;;;5076216;28;20481;-70
2023/12/14 02:33:48;;;;;;;7.20;5.22;;;5.50;99.90;;;;;;5058250;28;20051;-70
2023/12/14 02:36:14;;;;;;;9.30;5.35;;;5.50;99.90;;;;;;5076070;28;20047;-70
2023/12/14 02:38:39;;;;;;;7.43;5.30;;;5.50;99.90;;;;;;5074672;28;20081;-70
2023/12/14 02:41:05;;;;;;;7.18;5.45;;;5.50;99.90;;;;;;5074388;28;20048;-70
2023/12/14 02:43:31;;;;;;;9.10;5.65;;;5.50;99.90;;;;;;5075651;28;20072;-70
2023/12/14 02:46:01;;;;;;;9.73;5.60;;;5.40;99.90;;;;;;5074454;28;20046;-70
2023/12/14 02:48:28;;;;;;;7.63;4.90;;;5.40;99.90;;;;;;5075630;28;20517;-70
2023/12/14 02:50:54;;;;;;;8.30;5.70;;;5.50;99.90;;;;;;5075806;28;20032;-70
2023/12/14 02:53:20;;;;;;;9.40;5.82;;;5.40;99.90;;;;;;5074274;28;20041;-70
2023/12/14 02:55:45;;;;;;;8.77;5.55;;;5.50;99.90;;;;;;5074232;28;20055;-70
2023/12/14 02:58:11;;;;;;;7.60;5.80;;;5.40;99.90;;;;;;5074496;28;20043;-70
2023/12/14 03:00:36;;;;;;;9.80;6.22;;;5.50;99.90;;;;;;5075697;28;20043;-70
2023/12/14 03:03:02;;;;;;;16.98;6.07;;;5.50;99.90;;;;;;5075554;28;20383;-70
2023/12/14 03:05:27;;;;;;;10.68;6.13;;;5.50;99.90;;;;;;5075609;28;20115;-70
2023/12/14 03:07:53;;;;;;;8.73;6.20;;;5.40;99.90;;;;;;5074018;28;20508;-70
2023/12/14 03:10:19;;;;;;;9.68;6.03;;;5.50;99.90;;;;;;5074218;28;20054;-70
2023/12/14 03:12:44;;;;;;;9.52;5.85;;;5.50;99.90;;;;;;5073957;28;20090;-70
2023/12/14 03:15:10;;;;;;;10.35;5.90;;;5.50;99.90;;;;;;5057287;28;20051;-70
2023/12/14 03:17:35;;;;;;;12.05;6.90;;;5.50;99.90;;;;;;5074211;28;20046;-70
2023/12/14 03:20:03;;;;;;;11.40;6.78;;;5.50;99.90;;;;;;5075137;28;20041;-70
2023/12/14 03:22:28;;;;;;;11.70;6.45;;;5.50;99.90;;;;;;5074880;28;20040;-70
2023/12/14 03:24:54;;;;;;;10.18;6.30;;;5.50;99.90;;;;;;5057046;28;20467;-70
2023/12/14 03:27:22;;;;;;;9.93;6.45;;;5.50;99.90;;;;;;5073641;28;20390;-71
2023/12/14 03:29:48;;;;;;;10.27;6.97;;;5.50;99.90;;;;;;5074373;28;20052;-71
2023/12/14 03:32:13;;;;;;;11.00;6.90;;;5.50;99.90;;;;;;5073502;28;20033;-70
2023/12/14 03:34:39;;;;;;;12.77;8.10;;;5.50;99.90;;;;;;5073843;28;20037;-70
2023/12/14 03:37:04;;;;;;;14.13;7.30;;;5.50;99.90;;;;;;5073468;28;20063;-70
2023/12/14 03:39:30;;;;;;;13.20;8.10;;;5.50;99.90;;;;;;5073436;28;20139;-70
2023/12/14 03:41:55;;;;;;;10.68;7.60;;;5.50;99.90;;;;;;5073564;28;20036;-70
2023/12/14 03:44:21;;;;;;;15.02;8.27;;;5.40;99.90;;;;;;5073281;28;20436;-70
2023/12/14 03:46:47;;;;;;;11.65;7.60;;;5.40;99.90;;;;;;5073306;28;20072;-70
2023/12/14 03:49:12;;;;;;;15.00;8.02;;;5.40;99.90;;;;;;5073223;28;20036;-70
2023/12/14 03:51:38;;;;;;;12.38;7.38;;;5.50;99.90;;;;;;5074716;28;20032;-70
2023/12/14 03:54:04;;;;;;;12.82;8.40;;;5.40;99.90;;;;;;5073430;28;20048;-70
2023/12/14 03:56:29;;;;;;;14.85;8.30;;;5.40;99.90;;;;;;5072285;28;20080;-70
2023/12/14 03:58:57;;;;;;;15.75;8.50;;;5.40;99.90;;;;;;5075068;28;20041;-70
2023/12/14 04:01:22;;;;;;;14.38;7.78;;;5.40;99.90;;;;;;5072929;28;20044;-70
2023/12/14 04:03:48;;;;;;;14.70;8.27;;;5.50;99.90;;;;;;5072832;28;20043;-70
2023/12/14 04:06:14;;;;;;;13.95;8.10;;;5.40;99.90;;;;;;5073219;28;20037;-70
2023/12/14 04:08:40;;;;;;;11.70;7.32;;;5.50;99.90;;;;;;5073071;28;20085;-70
2023/12/14 04:11:06;;;;;;;14.13;8.00;;;5.40;99.90;;;;;;5072638;28;20485;-70
2023/12/14 04:13:32;;;;;;;11.10;7.63;;;5.40;99.90;;;;;;5072697;28;20082;-70
2023/12/14 04:15:57;;;;;;;13.43;8.07;;;5.40;99.90;;;;;;5072684;28;20097;-70
2023/12/14 04:18:23;;;;;;;13.63;7.43;;;5.40;99.90;;;;;;5074214;28;20055;-70
2023/12/14 04:20:49;;;;;;;13.07;7.22;;;5.40;99.90;;;;;;5072551;28;20119;-70
2023/12/14 04:23:14;;;;;;;13.32;7.45;;;5.40;99.90;;;;;;5073689;28;20037;-70
2023/12/14 04:25:40;;;;;;;15.82;7.93;;;5.40;99.90;;;;;;5072829;28;20078;-70
2023/12/14 04:28:06;;;;;;;14.50;8.55;;;5.40;99.90;;;;;;5073984;28;20033;-70
2023/12/14 04:30:31;;;;;;;10.85;7.72;;;5.40;99.90;;;;;;5072443;28;20106;-70
2023/12/14 04:32:57;;;;;;;13.48;8.02;;;5.40;99.90;;;;;;5072767;28;20048;-70
2023/12/14 04:35:22;;;;;;;15.30;7.85;;;5.40;99.90;;;;;;5072406;28;20040;-70
2023/12/14 04:37:48;;;;;;;13.10;7.20;;;5.40;99.90;;;;;;5072418;28;20040;-70
2023/12/14 04:40:14;;;;;;;13.88;8.10;;;5.40;99.90;;;;;;5072491;28;20507;-70
2023/12/14 04:42:40;;;;;;;13.55;7.45;;;5.40;99.90;;;;;;5055738;28;20040;-70
2023/12/14 04:45:06;;;;;;;13.63;8.30;;;5.40;99.90;;;;;;5072455;28;20473;-70
2023/12/14 04:47:32;;;;;;;15.02;7.50;;;5.40;99.90;;;;;;5072427;28;20044;-70
2023/12/14 04:49:57;;;;;;;11.02;7.28;;;5.40;99.90;;;;;;5072224;28;20566;-70
2023/12/14 04:52:23;;;;;;;14.40;7.57;;;5.40;99.90;;;;;;5072123;28;20033;-70
2023/12/14 04:54:49;;;;;;;14.73;7.28;;;5.40;99.90;;;;;;5072192;28;20086;-70
2023/12/14 04:57:15;;;;;;;13.02;8.05;;;5.40;99.90;;;;;;5072047;28;20044;-70
2023/12/14 04:59:43;;;;;;;15.60;7.95;;;5.40;99.90;;;;;;5072271;28;20032;-70
2023/12/14 05:02:09;;;;;;;12.85;7.22;;;5.40;99.90;;;;;;5072166;28;20382;-70
2023/12/14 05:04:34;;;;;;;17.75;7.85;;;5.40;99.90;;;;;;5073486;28;20089;-70
2023/12/14 05:07:00;;;;;;;12.52;7.03;;;5.40;99.90;;;;;;5071828;28;20043;-70
2023/12/14 05:09:26;;;;;;;13.45;7.57;;;5.40;99.90;;;;;;5071879;28;20033;-70
2023/12/14 05:11:52;;;;;;;14.32;7.20;;;5.40;99.90;;;;;;5073337;28;20079;-70
2023/12/14 05:14:18;;;;;;;13.63;7.55;;;5.40;99.90;;;;;;5072156;28;20060;-70
2023/12/14 05:16:44;;;;;;;15.50;8.45;;;5.40;99.90;;;;;;5072156;28;20041;-70
2023/12/14 05:19:09;;;;;;;17.13;7.90;;;5.40;99.90;;;;;;5073432;28;20447;-70
2023/12/14 05:21:35;;;;;;;10.10;7.22;;;5.40;99.90;;;;;;5071790;28;20068;-70
2023/12/14 05:24:01;;;;;;;14.13;7.40;;;5.40;99.90;;;;;;5071659;28;20443;-70
2023/12/14 05:26:26;;;;;;;10.95;6.55;;;5.40;99.90;;;;;;5071746;28;20047;-70
2023/12/14 05:28:52;;;;;;;11.05;6.88;;;5.40;99.90;;;;;;5073247;28;20083;-70
2023/12/14 05:31:18;;;;;;;14.43;7.53;;;5.30;99.90;;;;;;5071625;28;20045;-70
2023/12/14 05:33:43;;;;;;;9.93;6.25;;;5.40;99.90;;;;;;5073199;28;20047;-70
2023/12/14 05:36:10;;;;;;;10.23;6.85;;;5.30;99.90;;;;;;5073318;28;20044;-70
2023/12/14 05:38:40;;;;;;;11.02;6.88;;;5.30;99.90;;;;;;5073478;28;20497;-70
2023/12/14 05:41:05;;;;;;;13.18;6.97;;;5.40;99.90;;;;;;5072179;28;20095;-70
2023/12/14 05:43:31;;;;;;;13.30;6.78;;;5.30;99.90;;;;;;5073084;28;20480;-70
2023/12/14 05:45:57;;;;;;;11.52;7.18;;;5.30;99.90;;;;;;5071592;28;20037;-70
2023/12/14 05:48:22;;;;;;;11.90;6.63;;;5.30;99.90;;;;;;5071566;28;20040;-70
2023/12/14 05:50:48;;;;;;;13.10;6.43;;;5.30;99.90;;;;;;5071460;28;20102;-70
2023/12/14 05:53:14;;;;;;;12.13;6.35;;;5.30;99.90;;;;;;5073014;28;20111;-70
2023/12/14 05:55:40;;;;;;;9.25;6.80;;;5.30;99.90;;;;;;5071502;28;20036;-70
2023/12/14 05:58:07;;;;;;;10.00;6.35;;;5.30;99.90;;;;;;5071464;28;20048;-70
2023/12/14 06:00:34;;;;;;;15.05;7.30;;;5.30;99.90;;;;;;5072871;28;20044;-70
2023/12/14 06:03:00;;;;;;;14.75;6.65;;;5.40;99.90;;;;;;5071318;28;20045;-70
2023/12/14 06:05:26;;;;;;;12.85;6.55;;;5.40;99.90;;;;;;5071723;28;20047;-70
2023/12/14 06:07:51;;;;;;;12.43;6.97;;;5.30;99.90;;;;;;5072885;28;20036;-70
2023/12/14 06:10:17;;;;;;;9.98;6.40;;;5.30;99.90;;;;;;5071710;28;20137;-70
2023/12/14 06:12:43;;;;;;;10.48;6.82;;;5.30;99.90;;;;;;5071565;28;20524;-70
2023/12/14 06:15:10;;;;;;;9.27;6.38;;;5.30;99.90;;;;;;5071398;28;20528;-70
2023/12/14 06:17:37;;;;;;;9.30;6.38;;;5.30;99.90;;;;;;5071243;28;20044;-70
2023/12/14 06:20:04;;;;;;;10.40;6.90;;;5.30;99.90;;;;;;5074942;28;20072;-69
2023/12/14 06:22:29;;;;;;;8.98;5.80;;;5.30;99.90;;;;;;5074811;28;20044;-69
2023/12/14 06:24:55;;;;;;;9.93;5.75;;;5.30;99.90;;;;;;5076366;28;20370;-69
2023/12/14 06:27:26;;;;;;;11.30;6.00;;;5.30;99.90;;;;;;5074820;28;20382;-69
2023/12/14 06:29:52;;;;;;;12.38;6.28;;;5.30;99.90;;;;;;5075052;28;20160;-69
2023/12/14 06:32:17;;;;;;;10.43;6.57;;;5.30;99.90;;;;;;5076295;28;20507;-69
2023/12/14 06:34:43;;;;;;;12.90;5.72;;;5.20;99.90;;;;;;5076237;28;20120;-69
2023/12/14 06:37:09;;;;;;;9.85;6.50;;;5.20;99.90;;;;;;5074579;28;20113;-69
2023/12/14 06:39:35;;;;;;;12.20;6.55;;;5.20;99.90;;;;;;5076013;28;20032;-69
2023/12/14 06:42:01;;;;;;;9.32;5.97;;;5.20;99.90;;;;;;5074479;28;20041;-69
2023/12/14 06:44:28;;;;;;;10.40;5.68;;;5.30;99.90;;;;;;5074430;28;20047;-69
2023/12/14 06:46:54;;;;;;;7.93;5.45;;;5.20;99.90;;;;;;5058025;28;20052;-69
2023/12/14 06:49:20;;;;;;;8.70;5.45;;;5.30;99.90;;;;;;5074626;28;20041;-69
2023/12/14 06:51:46;;;;;;;10.48;5.82;;;5.30;99.90;;;;;;5074615;28;20032;-70
2023/12/14 06:54:11;;;;;;;9.57;6.30;;;5.30;99.90;;;;;;5074344;28;20036;-70
2023/12/14 06:56:37;;;;;;;9.45;6.22;;;5.30;99.90;;;;;;5075752;28;20044;-70
2023/12/14 06:59:03;;;;;;;9.05;6.05;;;5.30;99.90;;;;;;5074163;28;20497;-70
2023/12/14 07:01:28;;;;;;;12.05;6.93;;;5.30;99.90;;;;;;5075610;28;20034;-70
2023/12/14 07:03:54;;;;;;;10.75;6.72;;;5.30;99.90;;;;;;5075565;28;20493;-70
2023/12/14 07:06:21;;;;;;;10.50;6.13;;;5.30;99.90;;;;;;5074027;28;20033;-70
2023/12/14 07:08:47;;;;;;;11.55;7.20;;;5.30;99.90;;;;;;5074070;28;20033;-70
2023/12/14 07:11:13;;;;;;;14.73;8.18;;;5.30;99.90;;;;;;5075388;28;20112;-70
2023/12/14 07:13:39;;;;;;;12.65;8.20;;;5.30;99.90;;;;;;5074013;28;20086;-70
2023/12/14 07:16:07;;;;;;;11.00;7.18;;;5.40;99.90;;;;;;5075361;28;20542;-70
2023/12/14 07:18:42;;;;;;;10.70;6.65;;;5.30;99.90;;;;;;5075423;28;20045;-70
2023/12/14 07:21:08;;;;;;;12.35;8.00;;;5.30;99.90;;;;;;5075378;28;20043;-70
2023/12/14 07:23:34;;;;;;;12.98;7.82;;;5.40;99.90;;;;;;5073676;28;20119;-70
2023/12/14 07:26:00;;;;;;;14.65;7.93;;;5.40;99.90;;;;;;5073974;28;20055;-70
2023/12/14 07:28:26;;;;;;;10.95;7.45;;;5.30;99.90;;;;;;5073893;28;20041;-70
2023/12/14 07:30:52;;;;;;;13.02;7.82;;;5.30;99.90;;;;;;5072336;28;20037;-70
2023/12/14 07:33:17;;;;;;;12.98;7.97;;;5.40;99.90;;;;;;5075206;28;20044;-70
2023/12/14 07:35:43;;;;;;;10.43;6.75;;;5.40;99.90;;;;;;5073790;28;20542;-70
2023/12/14 07:38:12;;;;;;;10.82;7.60;;;5.40;99.90;;;;;;5073450;28;20497;-70
2023/12/14 07:40:41;;;;;;;11.73;6.88;;;5.40;99.90;;;;;;5073349;28;20127;-70
2023/12/14 07:43:07;;;;;;;12.02;7.05;;;5.40;99.90;;;;;;5074779;28;20044;-70
2023/12/14 07:45:33;;;;;;;12.95;7.65;;;5.40;99.90;;;;;;5074824;28;20068;-70
2023/12/14 07:47:58;;;;;;;13.25;8.27;;;5.40;99.90;;;;;;5073215;28;20072;-70
2023/12/14 07:50:24;;;;;;;11.70;7.57;;;5.40;99.90;;;;;;5073408;28;20028;-70
2023/12/14 07:52:49;;;;;;;11.23;7.90;;;5.40;99.90;;;;;;5073220;28;20545;-70
2023/12/14 07:55:15;;;;;;;11.43;8.45;;;5.40;99.90;;;;;;5073163;28;20085;-70
2023/12/14 07:57:41;;;;;;;12.25;8.43;;;5.40;99.90;;;;;;5074566;28;20049;-69
2023/12/14 08:00:09;;;;;;;13.52;9.30;;;5.40;99.90;;;;;;5073283;28;20047;-70
2023/12/14 08:02:34;;;;;;;11.55;8.15;;;5.40;99.90;;;;;;5073994;28;20085;-69
2023/12/14 08:05:00;;;;;;;13.35;8.57;;;5.40;99.90;;;;;;5074538;28;20115;-69
2023/12/14 08:07:28;;;;;;;12.57;8.18;;;5.40;99.90;;;;;;5074207;28;20134;-71
2023/12/14 08:09:55;;;;;;;15.20;9.10;;;5.30;99.90;;;;;;5072795;28;20489;-70
2023/12/14 08:12:21;;;;;;;14.48;8.45;;;5.40;99.90;;;;;;5072606;28;20520;-70
2023/12/14 08:14:47;;;;;;;14.43;8.82;;;5.40;99.90;;;;;;5073216;28;20115;-71
2023/12/14 08:17:13;;;;;;;14.13;9.27;;;5.40;99.90;;;;;;5074737;28;20437;-71
2023/12/14 08:19:38;;;;;;;14.98;9.50;;;5.40;99.90;;;;;;5074119;28;20032;-71
2023/12/14 08:22:04;;;;;;;16.60;9.07;;;5.30;99.90;;;;;;5055735;28;20059;-71
2023/12/14 08:24:29;;;;;;;17.05;9.82;;;5.30;99.90;;;;;;5072540;28;20052;-71
2023/12/14 08:26:55;;;;;;;16.70;9.27;;;5.30;99.90;;;;;;5072712;28;20040;-71
2023/12/14 08:29:22;;;;;;;18.35;10.40;;;5.30;99.90;;;;;;5072779;28;20044;-71
2023/12/14 08:31:48;;;;;;;17.60;10.65;;;5.30;99.90;;;;;;5072343;28;20051;-71
2023/12/14 08:34:13;;;;;;;20.98;10.30;;;5.40;99.90;;;;;;5072423;28;20040;-71
2023/12/14 08:36:39;;;;;;;12.95;9.10;;;5.40;99.90;;;;;;5073642;28;20123;-71
2023/12/14 08:39:04;;;;;;;22.83;10.60;;;5.40;99.90;;;;;;5072437;28;20109;-71
2023/12/14 08:41:32;;;;;;;22.80;11.45;;;5.40;99.90;;;;;;5073365;28;20111;-70
2023/12/14 08:43:58;;;;;;;21.45;11.50;;;5.40;99.90;;;;;;5072326;28;20489;-70
2023/12/14 08:46:23;;;;;;;18.55;10.40;;;5.40;99.90;;;;;;5073660;28;20036;-70
2023/12/14 08:48:49;;;;;;;17.95;11.73;;;5.40;99.90;;;;;;5072516;28;20112;-70
2023/12/14 08:51:15;;;;;;;20.30;10.32;;;5.40;99.90;;;;;;5072231;28;20040;-70
2023/12/14 08:53:40;;;;;;;19.85;9.85;;;5.40;99.90;;;;;;5055445;28;20044;-70
2023/12/14 08:56:08;;;;;;;18.17;9.98;;;5.40;99.90;;;;;;5073632;28;20048;-70
2023/12/14 08:58:33;;;;;;;16.20;10.10;;;5.50;99.90;;;;;;5073535;28;20523;-70
2023/12/14 09:00:59;;;;;;;16.90;10.55;;;5.50;99.90;;;;;;5072258;28;20044;-70
2023/12/14 09:03:26;;;;;;;18.75;9.77;;;5.50;99.90;;;;;;5071946;28;20520;-70
2023/12/14 09:05:52;;;;;;;21.02;10.77;;;5.50;99.90;;;;;;5071974;28;20052;-70
2023/12/14 09:08:17;;;;;;;20.40;11.07;;;5.60;99.90;;;;;;5071959;28;20043;-70
2023/12/14 09:10:43;;;;;;;16.23;10.07;;;5.60;99.90;;;;;;5072102;28;20071;-70
2023/12/14 09:13:09;;;;;;;22.45;10.93;;;5.60;99.90;;;;;;5071923;28;20497;-70
2023/12/14 09:15:34;;;;;;;21.48;10.40;;;5.60;99.90;;;;;;5072167;28;20106;-70
2023/12/14 09:18:00;;;;;;;23.60;10.95;;;5.60;99.90;;;;;;5073365;28;20400;-70
2023/12/14 09:20:26;;;;;;;20.60;11.35;;;5.60;99.90;;;;;;5073320;28;20040;-70
2023/12/14 09:22:52;;;;;;;21.85;10.60;;;5.70;99.90;;;;;;5071580;28;20057;-71
2023/12/14 09:25:18;;;;;;;20.30;10.77;;;5.70;99.90;;;;;;5071783;28;20124;-71
2023/12/14 09:27:44;;;;;;;20.70;10.35;;;5.70;99.90;;;;;;5071809;28;20111;-70
2023/12/14 09:30:10;;;;;;;19.63;11.30;;;5.70;99.90;;;;;;5071724;28;20033;-70
2023/12/14 09:32:36;;;;;;;23.90;11.68;;;5.70;99.90;;;;;;5073019;28;20520;-70
2023/12/14 09:35:02;;;;;;;18.17;10.88;;;5.70;99.90;;;;;;5071732;28;20041;-70
2023/12/14 09:37:28;;;;;;;17.65;10.38;;;5.70;99.90;;;;;;5071723;28;20048;-70
2023/12/14 09:39:53;;;;;;;19.10;10.23;;;5.70;99.90;;;;;;5054953;28;20035;-70
2023/12/14 09:42:20;;;;;;;21.50;10.85;;;5.70;99.90;;;;;;5071564;28;20405;-70
2023/12/14 09:44:48;;;;;;;20.33;11.30;;;5.70;99.90;;;;;;5071585;28;20493;-70
2023/12/14 09:47:14;;;;;;;21.02;11.20;;;5.80;99.90;;;;;;5071828;28;20033;-70
2023/12/14 09:49:42;;;;;;;19.30;10.30;;;5.70;99.90;;;;;;5071530;28;20566;-70
2023/12/14 09:52:08;;;;;;;21.17;11.20;;;5.80;99.90;;;;;;5071539;28;20043;-70
2023/12/14 09:54:34;;;;;;;17.70;10.57;;;5.80;99.90;;;;;;5074702;28;20036;-70
2023/12/14 09:56:59;;;;;;;22.50;11.38;;;5.80;99.90;;;;;;5075377;28;20048;-70
2023/12/14 09:59:25;;;;;;;23.45;11.02;;;5.80;99.90;;;;;;5075412;28;20051;-70
2023/12/14 10:01:50;;;;;;;18.15;10.57;;;5.80;99.90;;;;;;5075271;28;20047;-70
2023/12/14 10:04:20;;;;;;;22.35;11.45;;;5.90;99.90;;;;;;5076684;28;20037;-70
2023/12/14 10:06:47;;;;;;;20.65;9.73;;;5.90;99.90;;;;;;5075141;28;20572;-70
2023/12/14 10:09:15;;;;;;;22.25;11.38;;;5.90;99.90;;;;;;5075429;28;20036;-70
2023/12/14 10:11:42;;;;;;;21.77;10.85;;;6.00;99.90;;;;;;5075080;28;20127;-70
2023/12/14 10:14:25;;;;;;;21.45;11.07;;;5.90;99.90;;;;;;5075132;28;20072;-70
2023/12/14 10:16:51;;;;;;;20.88;10.73;;;6.00;99.90;;;;;;5075071;28;20497;-70
2023/12/14 10:19:18;;;;;;;18.05;10.27;;;6.00;99.90;;;;;;5074921;28;20103;-70
2023/12/14 10:21:46;;;;;;;19.27;10.80;;;6.00;99.90;;;;;;5074874;28;20120;-70
2023/12/14 10:24:12;;;;;;;21.30;10.82;;;6.00;99.90;;;;;;5074857;28;20044;-70
2023/12/14 10:26:37;;;;;;;18.77;10.05;;;6.10;99.90;;;;;;5076001;28;20044;-70
2023/12/14 10:29:04;;;;;;;17.63;10.15;;;6.10;99.90;;;;;;5074749;28;20036;-70
2023/12/14 10:31:31;;;;;;;23.90;11.63;;;6.10;99.90;;;;;;5076177;28;20051;-70
2023/12/14 10:33:57;;;;;;;17.88;11.18;;;6.10;99.90;;;;;;5074714;28;20047;-70
2023/12/14 10:36:25;;;;;;;19.45;11.25;;;6.10;99.90;;;;;;5076123;28;20036;-70
2023/12/14 10:38:57;;;;;;;20.25;10.73;;;6.10;99.90;;;;;;5074836;28;20063;-70
2023/12/14 10:41:24;;;;;;;19.70;10.60;;;6.10;99.90;;;;;;5076040;28;20072;-70
2023/12/14 10:43:53;;;;;;;17.33;10.65;;;6.10;99.90;;;;;;5074432;28;20047;-70
2023/12/14 10:46:20;;;;;;;20.90;11.20;;;6.20;99.90;;;;;;5074500;28;20044;-70
2023/12/14 10:48:48;;;;;;;22.20;11.25;;;6.20;99.90;;;;;;5074431;28;20497;-70
2023/12/14 10:51:14;;;;;;;22.10;11.20;;;6.30;99.90;;;;;;5075824;28;20035;-70
2023/12/14 10:53:44;;;;;;;17.75;10.40;;;6.30;99.90;;;;;;5075494;28;20404;-70
2023/12/14 10:56:11;;;;;;;20.33;11.50;;;6.30;99.90;;;;;;5057690;28;20040;-70
2023/12/14 10:58:56;;;;;;;18.45;10.77;;;6.30;99.90;;;;;;5075781;28;20044;-70
2023/12/14 11:01:24;;;;;;;19.58;10.10;;;6.40;99.90;;;;;;5074199;28;20090;-70
2023/12/14 11:03:53;;;;;;;24.23;11.15;;;6.40;99.90;;;;;;5074216;28;20102;-71
2023/12/14 11:06:30;;;;;;;16.77;10.30;;;6.40;99.90;;;;;;5073716;28;20033;-70
2023/12/14 11:09:06;;;;;;;17.05;10.43;;;6.40;99.90;;;;;;5075597;28;20086;-70
2023/12/14 11:11:52;;;;;;;18.70;10.32;;;6.40;99.90;;;;;;5073968;28;20446;-70
2023/12/14 11:14:19;;;;;;;20.75;10.77;;;6.40;99.90;;;;;;5074551;28;20500;-70
2023/12/14 11:16:46;;;;;;;16.73;10.38;;;6.40;99.90;;;;;;5075406;28;20161;-70
2023/12/14 11:19:21;;;;;;;16.02;10.05;;;6.40;99.90;;;;;;5073921;28;20401;-70
2023/12/14 11:21:47;;;;;;;20.83;10.38;;;6.40;99.90;;;;;;5073990;28;20040;-70
2023/12/14 11:24:13;;;;;;;17.48;10.38;;;6.40;99.90;;;;;;5075184;28;20047;-70
2023/12/14 11:26:40;;;;;;;18.35;9.27;;;6.40;99.90;;;;;;5073972;28;20036;-70
2023/12/14 11:29:06;;;;;;;16.70;9.50;;;6.40;99.90;;;;;;5075245;28;20043;-70
2023/12/14 11:31:32;;;;;;;16.75;9.23;;;6.40;99.90;;;;;;5073904;28;20059;-70
2023/12/14 11:34:00;;;;;;;14.70;9.75;;;6.40;99.90;;;;;;5075128;28;20485;-70
2023/12/14 11:36:26;;;;;;;16.58;10.23;;;6.40;99.90;;;;;;5073580;28;20040;-70
2023/12/14 11:38:54;;;;;;;15.70;9.77;;;6.40;99.90;;;;;;5073785;28;20048;-70
2023/12/14 11:41:21;;;;;;;17.92;9.90;;;6.40;99.90;;;;;;5073560;28;20036;-70
2023/12/14 11:43:47;;;;;;;17.55;10.20;;;6.50;99.90;;;;;;5073298;28;20487;-70
2023/12/14 11:46:14;;;;;;;17.48;9.52;;;6.60;99.90;;;;;;5073621;28;20062;-70
2023/12/14 11:48:40;;;;;;;16.42;9.55;;;6.70;99.90;;;;;;5074806;28;20044;-70
2023/12/14 11:51:05;;;;;;;16.25;9.80;;;6.70;99.90;;;;;;5074353;28;20115;-70
2023/12/14 11:53:32;;;;;;;18.02;9.38;;;6.70;99.90;;;;;;5073177;28;20048;-70
2023/12/14 11:56:02;;;;;;;15.95;9.70;;;6.70;99.90;;;;;;5073249;28;20051;-70
2023/12/14 11:58:28;;;;;;;17.13;9.75;;;6.70;99.90;;;;;;5074683;28;20032;-70
2023/12/14 12:00:55;;;;;;;13.38;8.90;;;6.70;99.90;;;;;;5074495;28;20042;-70
2023/12/14 12:03:20;;;;;;;16.25;9.43;;;6.60;99.90;;;;;;5072843;28;20044;-70
2023/12/14 12:05:51;;;;;;;15.50;9.35;;;6.60;99.90;;;;;;5072966;28;20040;-70
2023/12/14 12:08:19;;;;;;;14.65;9.13;;;6.60;99.90;;;;;;5074481;28;20033;-70
2023/12/14 12:10:46;;;;;;;13.88;9.32;;;6.60;99.90;;;;;;5072861;28;20049;-70
2023/12/14 12:13:16;;;;;;;17.20;9.20;;;6.50;99.90;;;;;;5072985;28;20078;-70
2023/12/14 12:15:43;;;;;;;16.02;9.05;;;6.50;99.90;;;;;;5072703;28;20037;-70
2023/12/14 12:18:10;;;;;;;13.20;9.13;;;6.50;99.90;;;;;;5072013;28;20493;-70
2023/12/14 12:20:36;;;;;;;16.08;9.43;;;6.50;99.90;;;;;;5074083;28;20194;-70
2023/12/14 12:23:03;;;;;;;16.10;9.07;;;6.50;99.90;;;;;;5072632;28;20119;-70
2023/12/14 12:25:30;;;;;;;11.70;8.48;;;6.60;99.90;;;;;;5072635;28;20102;-70
2023/12/14 12:27:56;;;;;;;14.95;8.70;;;6.60;99.90;;;;;;5074029;28;20036;-70
2023/12/14 12:30:23;;;;;;;15.48;8.63;;;6.60;99.90;;;;;;5072335;28;20044;-70
2023/12/14 12:32:52;;;;;;;15.60;8.30;;;6.70;99.90;;;;;;5072447;28;20588;-70
2023/12/14 12:35:22;;;;;;;14.60;8.60;;;6.70;99.90;;;;;;5072608;28;20190;-70
2023/12/14 12:37:53;;;;;;;15.15;9.00;;;6.70;99.90;;;;;;5072567;28;20040;-70
2023/12/14 12:40:22;;;;;;;14.98;8.77;;;6.70;99.90;;;;;;5073755;28;20478;-70
2023/12/14 12:42:49;;;;;;;17.45;9.82;;;6.70;99.90;;;;;;5073661;28;20040;-70